Time;durP1;ratioP1;P1;durP2;ratioP2;P2;SDS_P1;SDS_P2;PMS_P1;PMS_P2;Temp;Humidity;BMP_temperature;BMP_pressure;BME280_temperature;BME280_humidity;BME280_pressure;Samples;Min_cycle;Max_cycle;Signal;HPM_P1;HPM_P2
2022/07/05 00:00:31;;;;;;;1.65;0.68;;;;;;;14.46;100.00;101378.56;6125388;23;20018;-83
2022/07/05 00:02:56;;;;;;;0.70;0.40;;;;;;;14.52;100.00;101378.13;6125738;23;20022;-84
2022/07/05 00:05:22;;;;;;;3.33;0.90;;;;;;;14.63;100.00;101377.41;6123247;23;20017;-83
2022/07/05 00:07:47;;;;;;;2.03;0.60;;;;;;;14.66;100.00;101385.16;6123625;23;20034;-83
2022/07/05 00:10:12;;;;;;;1.05;0.52;;;;;;;14.63;100.00;101380.94;6125266;23;20002;-84
2022/07/05 00:12:38;;;;;;;2.50;0.50;;;;;;;14.35;100.00;101383.72;6125377;23;20443;-83
2022/07/05 00:15:03;;;;;;;5.28;0.70;;;;;;;14.47;100.00;101385.53;6125495;23;20344;-83
2022/07/05 00:17:29;;;;;;;3.10;0.60;;;;;;;14.55;100.00;101383.19;6125346;23;20033;-83
2022/07/05 00:19:54;;;;;;;0.88;0.30;;;;;;;14.46;100.00;101394.41;6124666;23;20006;-84
2022/07/05 00:22:19;;;;;;;1.15;0.50;;;;;;;14.50;100.00;101389.78;6148292;23;20006;-83
2022/07/05 00:24:45;;;;;;;1.23;0.40;;;;;;;14.40;100.00;101386.91;6124341;23;20377;-83
2022/07/05 00:27:10;;;;;;;1.48;0.30;;;;;;;14.43;100.00;101384.03;6123829;23;20009;-83
2022/07/05 00:29:36;;;;;;;0.90;0.40;;;;;;;14.21;100.00;101385.50;6123901;23;20006;-83
2022/07/05 00:32:01;;;;;;;1.60;0.60;;;;;;;14.34;100.00;101392.63;6125310;23;20053;-83
2022/07/05 00:34:26;;;;;;;0.52;0.30;;;;;;;14.32;100.00;101389.25;6125742;23;20002;-83
2022/07/05 00:36:52;;;;;;;1.27;0.50;;;;;;;14.37;100.00;101397.69;6148611;23;20382;-83
2022/07/05 00:39:17;;;;;;;1.40;0.50;;;;;;;14.31;100.00;101396.28;6125422;23;20025;-83
2022/07/05 00:41:43;;;;;;;3.83;0.40;;;;;;;14.32;100.00;101391.88;6125242;23;20455;-83
2022/07/05 00:44:10;;;;;;;1.05;0.40;;;;;;;14.32;100.00;101391.88;6125382;23;20330;-83
2022/07/05 00:46:37;;;;;;;1.00;0.40;;;;;;;14.27;100.00;101393.00;6125135;23;20441;-83
2022/07/05 00:49:04;;;;;;;1.10;0.60;;;;;;;14.25;100.00;101396.72;6125431;23;20319;-83
2022/07/05 00:51:31;;;;;;;1.92;0.50;;;;;;;14.17;100.00;101394.59;6125358;23;20006;-83
2022/07/05 00:53:58;;;;;;;1.95;0.60;;;;;;;14.16;100.00;101397.31;6125333;23;20033;-83
2022/07/05 00:56:24;;;;;;;1.27;0.50;;;;;;;13.49;100.00;101395.56;6125147;23;20013;-83
2022/07/05 00:58:50;;;;;;;1.30;0.70;;;;;;;13.27;100.00;101394.28;6125222;23;20009;-83
2022/07/05 01:01:17;;;;;;;1.98;0.68;;;;;;;13.26;100.00;101394.34;6124805;23;20005;-83
2022/07/05 01:03:43;;;;;;;1.10;0.60;;;;;;;13.69;100.00;101396.91;6125203;23;20006;-82
2022/07/05 01:06:11;;;;;;;1.30;0.52;;;;;;;13.93;100.00;101394.44;6125138;23;20006;-82
2022/07/05 01:08:41;;;;;;;3.53;0.88;;;;;;;13.87;100.00;101395.69;6124852;23;20077;-83
2022/07/05 01:11:09;;;;;;;1.25;0.70;;;;;;;13.83;100.00;101396.84;6123478;23;20009;-83
2022/07/05 01:13:35;;;;;;;3.53;0.70;;;;;;;13.53;100.00;101404.13;6125039;23;20057;-82
2022/07/05 01:16:01;;;;;;;1.98;0.63;;;;;;;13.73;100.00;101394.91;6125227;23;20401;-82
2022/07/05 01:18:28;;;;;;;1.00;0.60;;;;;;;13.67;100.00;101401.44;6123178;23;20002;-82
2022/07/05 01:20:54;;;;;;;2.70;0.90;;;;;;;13.74;100.00;101402.72;6124620;23;20028;-84
2022/07/05 01:23:20;;;;;;;1.73;0.60;;;;;;;13.85;100.00;101405.50;6124859;23;20437;-83
2022/07/05 01:25:49;;;;;;;2.92;0.57;;;;;;;13.40;100.00;101399.63;6125131;23;20002;-83
2022/07/05 01:28:15;;;;;;;1.60;0.63;;;;;;;13.60;100.00;101390.41;6123424;23;19998;-84
2022/07/05 01:30:42;;;;;;;1.17;0.57;;;;;;;13.73;100.00;101398.41;6124951;23;20104;-83
2022/07/05 01:33:09;;;;;;;3.40;0.63;;;;;;;13.77;100.00;101391.97;6125098;23;20324;-83
2022/07/05 01:35:36;;;;;;;2.15;0.70;;;;;;;13.69;100.00;101391.63;6124994;23;20440;-84
2022/07/05 01:38:01;;;;;;;1.48;0.60;;;;;;;13.58;100.00;101394.09;6125143;23;20013;-83
2022/07/05 01:40:27;;;;;;;2.63;0.73;;;;;;;13.71;100.00;101395.00;6124982;23;20002;-84
2022/07/05 01:42:53;;;;;;;0.95;0.55;;;;;;;13.72;100.00;101394.06;6124667;23;20002;-83
2022/07/05 01:48:06;;;;;;;4.80;0.93;;;;;;;13.51;100.00;101391.03;6125025;23;20013;-83
2022/07/05 01:50:37;;;;;;;3.58;0.80;;;;;;;13.38;100.00;101383.03;6124754;23;20025;-83
2022/07/05 01:53:04;;;;;;;5.07;1.60;;;;;;;13.57;100.00;101389.78;6124937;23;20001;-84
2022/07/05 01:55:29;;;;;;;1.50;0.70;;;;;;;13.63;100.00;101390.22;6124722;23;20064;-83
2022/07/05 01:57:54;;;;;;;1.60;0.73;;;;;;;13.69;100.00;101387.19;6123028;23;20519;-83
2022/07/05 02:00:20;;;;;;;2.58;0.90;;;;;;;13.69;100.00;101386.34;6122891;23;20365;-83
2022/07/05 02:02:46;;;;;;;2.97;0.80;;;;;;;13.70;100.00;101388.03;6123164;23;20077;-83
2022/07/05 02:05:12;;;;;;;1.25;0.70;;;;;;;13.67;100.00;101390.88;6124896;23;20029;-83
2022/07/05 02:07:49;;;;;;;2.33;0.70;;;;;;;13.74;100.00;101386.03;6122895;23;20407;-83
2022/07/05 02:10:15;;;;;;;1.48;0.75;;;;;;;13.69;100.00;101383.72;6122670;23;20017;-83
2022/07/05 02:12:41;;;;;;;1.63;0.70;;;;;;;13.67;100.00;101393.53;6125019;23;20006;-83
2022/07/05 02:15:07;;;;;;;1.75;0.90;;;;;;;13.63;100.00;101395.50;6125106;23;20049;-83
2022/07/05 02:17:32;;;;;;;4.95;0.90;;;;;;;13.36;100.00;101386.75;6124545;23;20009;-83
2022/07/05 02:19:58;;;;;;;2.40;1.05;;;;;;;13.05;100.00;101386.00;6124718;23;20009;-83
2022/07/05 02:22:23;;;;;;;1.45;0.88;;;;;;;13.41;100.00;101389.94;6122898;23;20021;-83
2022/07/05 02:24:49;;;;;;;2.03;0.80;;;;;;;13.52;100.00;101394.50;6124737;23;20030;-84
2022/07/05 02:27:15;;;;;;;5.18;0.80;;;;;;;13.58;100.00;101387.03;6124467;23;20006;-83
2022/07/05 02:29:40;;;;;;;2.25;0.60;;;;;;;13.61;100.00;101386.00;6124454;23;20006;-84
2022/07/05 02:32:05;;;;;;;2.53;0.90;;;;;;;13.56;100.00;101385.44;6124635;23;20421;-83
2022/07/05 02:34:31;;;;;;;2.30;0.93;;;;;;;13.56;100.00;101378.38;6124690;23;20006;-83
2022/07/05 02:36:56;;;;;;;3.30;0.88;;;;;;;13.46;100.00;101383.41;6124515;23;20006;-83
2022/07/05 02:39:22;;;;;;;3.92;0.80;;;;;;;13.38;100.00;101385.69;6124570;23;20010;-83
2022/07/05 02:41:47;;;;;;;1.58;0.90;;;;;;;13.29;100.00;101373.06;6124444;23;20016;-83
2022/07/05 02:44:12;;;;;;;4.55;1.05;;;;;;;13.21;100.00;101377.97;6123040;23;20006;-83
2022/07/05 02:46:38;;;;;;;1.83;0.90;;;;;;;13.40;100.00;101375.03;6124569;23;20006;-83
2022/07/05 02:49:03;;;;;;;4.72;0.82;;;;;;;13.31;100.00;101368.56;6124805;23;19998;-81
2022/07/05 02:51:29;;;;;;;0.93;0.70;;;;;;;13.42;100.00;101368.72;6124297;23;20013;-84
2022/07/05 02:53:54;;;;;;;1.90;0.73;;;;;;;13.39;100.00;101363.66;6122902;23;20006;-83
2022/07/05 02:56:19;;;;;;;1.00;0.75;;;;;;;13.45;100.00;101370.31;6125258;23;20073;-83
2022/07/05 02:58:45;;;;;;;1.35;0.90;;;;;;;13.49;100.00;101374.47;6124419;23;20349;-84
2022/07/05 03:01:10;;;;;;;2.00;0.80;;;;;;;13.43;100.00;101374.84;6124662;23;20010;-84
2022/07/05 03:03:35;;;;;;;1.30;0.63;;;;;;;13.44;100.00;101373.91;6147501;23;20029;-83
2022/07/05 03:06:01;;;;;;;1.77;0.70;;;;;;;13.47;100.00;101369.28;6122897;23;20037;-83
2022/07/05 03:08:26;;;;;;;2.50;0.88;;;;;;;13.48;100.00;101376.22;6124279;23;20002;-83
2022/07/05 03:10:51;;;;;;;0.75;0.63;;;;;;;13.47;100.00;101369.28;6124317;23;20017;-84
2022/07/05 03:13:17;;;;;;;1.50;0.75;;;;;;;13.51;100.00;101369.94;6124527;23;20249;-83
2022/07/05 03:15:42;;;;;;;1.65;0.75;;;;;;;13.53;100.00;101364.56;6124348;23;20002;-83
2022/07/05 03:18:08;;;;;;;0.60;0.60;;;;;;;13.57;100.00;101376.59;6124637;23;20002;-83
2022/07/05 03:20:33;;;;;;;2.55;0.90;;;;;;;13.55;100.00;101373.22;6126258;23;20006;-83
2022/07/05 03:22:59;;;;;;;1.13;0.40;;;;;;;13.58;100.00;101371.19;6126210;23;20006;-83
2022/07/05 03:25:24;;;;;;;2.72;0.63;;;;;;;13.61;100.00;101380.72;6126350;23;20080;-83
2022/07/05 03:27:50;;;;;;;2.78;1.17;;;;;;;13.40;100.00;101383.78;6126040;23;20080;-84
2022/07/05 03:30:15;;;;;;;0.77;0.50;;;;;;;13.31;100.00;101381.78;6126030;23;20370;-84
2022/07/05 03:32:40;;;;;;;1.38;0.47;;;;;;;13.32;100.00;101391.34;6126188;23;20017;-83
2022/07/05 03:35:06;;;;;;;2.03;0.45;;;;;;;13.40;100.00;101394.34;6126367;23;20002;-83
2022/07/05 03:37:32;;;;;;;1.42;0.50;;;;;;;13.38;100.00;101390.97;6125895;23;20054;-83
2022/07/05 03:39:57;;;;;;;1.40;1.15;;;;;;;13.39;100.00;101391.81;6126025;23;20006;-83
2022/07/05 03:42:22;;;;;;;1.48;0.60;;;;;;;13.49;100.00;101393.78;6126011;23;19998;-84
2022/07/05 03:44:48;;;;;;;1.52;0.90;;;;;;;13.34;100.00;101396.53;6125749;23;20468;-83
2022/07/05 03:47:14;;;;;;;1.55;0.50;;;;;;;13.48;100.00;101399.13;6125929;23;19997;-83
2022/07/05 03:49:40;;;;;;;1.42;0.52;;;;;;;13.47;100.00;101394.81;6125957;23;20006;-83
2022/07/05 03:52:05;;;;;;;2.13;0.70;;;;;;;13.42;100.00;101392.47;6125799;23;20005;-83
2022/07/05 03:54:30;;;;;;;1.55;0.77;;;;;;;13.60;100.00;101397.50;6125770;23;20006;-83
2022/07/05 03:56:56;;;;;;;0.90;0.50;;;;;;;13.68;100.00;101397.84;6125797;23;20077;-83
2022/07/05 03:59:21;;;;;;;1.95;0.70;;;;;;;13.64;100.00;101401.63;6126317;23;19998;-83
2022/07/05 04:01:46;;;;;;;1.60;0.60;;;;;;;13.44;100.00;101401.13;6125790;23;20340;-83
2022/07/05 04:04:12;;;;;;;2.67;0.80;;;;;;;13.64;100.00;101402.47;6126141;23;20052;-83
2022/07/05 04:06:37;;;;;;;1.20;0.75;;;;;;;13.72;100.00;101398.50;6125737;23;20005;-84
2022/07/05 04:09:03;;;;;;;1.27;0.80;;;;;;;13.59;100.00;101409.00;6125680;23;20064;-83
2022/07/05 04:11:28;;;;;;;1.55;0.68;;;;;;;13.66;100.00;101402.38;6125806;23;20030;-83
2022/07/05 04:13:53;;;;;;;1.63;0.70;;;;;;;13.73;100.00;101406.31;6125497;23;20053;-83
2022/07/05 04:16:19;;;;;;;2.08;0.60;;;;;;;13.74;100.00;101408.00;6125732;23;20080;-83
2022/07/05 04:18:44;;;;;;;4.35;0.60;;;;;;;13.71;100.00;101418.78;6124034;23;20333;-83
2022/07/05 04:21:10;;;;;;;3.92;0.60;;;;;;;13.69;100.00;101415.38;6124278;23;20010;-83
2022/07/05 04:23:35;;;;;;;2.47;0.50;;;;;;;13.61;100.00;101412.41;6125911;23;20012;-83
2022/07/05 04:26:01;;;;;;;4.25;0.60;;;;;;;13.97;100.00;101413.56;6125489;23;20084;-83
2022/07/05 04:28:29;;;;;;;1.55;0.60;;;;;;;13.79;100.00;101416.47;6125558;23;20046;-83
2022/07/05 04:30:55;;;;;;;0.73;0.35;;;;;;;13.78;100.00;101420.03;6124986;23;20006;-83
2022/07/05 04:33:21;;;;;;;1.85;0.95;;;;;;;13.80;100.00;101420.81;6125552;23;20009;-83
2022/07/05 04:35:46;;;;;;;1.40;0.50;;;;;;;13.87;100.00;101423.88;6125585;23;20325;-83
2022/07/05 04:38:12;;;;;;;0.90;0.70;;;;;;;13.87;100.00;101419.44;6125629;23;20048;-83
2022/07/05 04:40:37;;;;;;;2.25;0.50;;;;;;;13.92;100.00;101421.81;6125256;23;20010;-83
2022/07/05 04:43:02;;;;;;;0.82;0.50;;;;;;;13.95;100.00;101420.75;6123629;23;20436;-83
2022/07/05 04:45:28;;;;;;;2.22;0.75;;;;;;;13.97;100.00;101426.78;6125415;23;20052;-83
2022/07/05 04:47:53;;;;;;;1.80;0.60;;;;;;;14.04;100.00;101433.31;6125516;23;20329;-83
2022/07/05 04:50:18;;;;;;;1.08;0.63;;;;;;;14.07;100.00;101431.31;6125102;23;20341;-84
2022/07/05 04:52:44;;;;;;;2.78;0.93;;;;;;;14.02;100.00;101430.81;6125390;23;20448;-83
2022/07/05 04:55:09;;;;;;;0.80;0.70;;;;;;;13.93;100.00;101433.22;6125442;23;20006;-83
2022/07/05 04:57:42;;;;;;;2.90;0.85;;;;;;;14.29;100.00;101441.31;6125188;23;20057;-83
2022/07/05 05:00:12;;;;;;;2.97;1.10;;;;;;;14.48;100.00;101434.78;6125414;23;20005;-83
2022/07/05 05:02:38;;;;;;;3.60;0.70;;;;;;;14.70;100.00;101433.38;6125418;23;20076;-83
2022/07/05 05:05:04;;;;;;;2.05;0.98;;;;;;;14.98;100.00;101430.47;6125384;23;20036;-83
2022/07/05 05:07:29;;;;;;;2.58;0.90;;;;;;;15.22;100.00;101429.69;6125247;23;20429;-84
2022/07/05 05:09:55;;;;;;;2.95;0.88;;;;;;;15.57;100.00;101439.56;6125036;23;20333;-83
2022/07/05 05:12:20;;;;;;;1.60;0.95;;;;;;;15.81;100.00;101437.78;6124863;23;20137;-83
2022/07/05 05:14:46;;;;;;;2.95;0.85;;;;;;;16.02;100.00;101437.16;6125166;23;19994;-83
2022/07/05 05:17:11;;;;;;;2.10;1.15;;;;;;;16.22;100.00;101440.97;6125220;23;20005;-83
2022/07/05 05:19:36;;;;;;;2.60;1.40;;;;;;;16.29;100.00;101443.97;6125136;23;20012;-83
2022/07/05 05:22:02;;;;;;;4.13;1.50;;;;;;;15.99;100.00;101440.03;6125085;23;20311;-83
2022/07/05 05:24:27;;;;;;;3.40;1.58;;;;;;;16.08;100.00;101436.69;6125144;23;20330;-83
2022/07/05 05:26:53;;;;;;;6.35;1.77;;;;;;;16.14;100.00;101438.06;6125089;23;20196;-83
2022/07/05 05:29:20;;;;;;;5.93;1.95;;;;;;;16.22;100.00;101440.97;6124925;23;20009;-83
2022/07/05 05:31:46;;;;;;;3.65;1.50;;;;;;;16.41;100.00;101440.41;6123458;23;20040;-83
2022/07/05 05:34:11;;;;;;;3.45;1.65;;;;;;;16.46;100.00;101438.25;6124881;23;20002;-83
2022/07/05 05:36:36;;;;;;;4.45;2.08;;;;;;;16.68;100.00;101452.50;6124899;23;20012;-83
2022/07/05 05:39:02;;;;;;;4.15;1.75;;;;;;;16.80;100.00;101468.31;6122902;23;20014;-83
2022/07/05 05:41:27;;;;;;;2.42;1.45;;;;;;;17.01;100.00;101455.22;6123286;23;20036;-83
2022/07/05 05:43:53;;;;;;;3.40;1.35;;;;;;;17.23;100.00;101450.88;6147915;23;20088;-83
2022/07/05 05:46:18;;;;;;;1.85;1.40;;;;;;;17.34;100.00;101447.38;6125083;23;20013;-83
2022/07/05 05:48:43;;;;;;;5.22;2.03;;;;;;;17.53;100.00;101449.38;6125079;23;20002;-83
2022/07/05 05:51:09;;;;;;;3.05;1.80;;;;;;;17.72;100.00;101454.88;6124671;23;20084;-83
2022/07/05 05:53:34;;;;;;;2.22;1.70;;;;;;;17.90;100.00;101462.34;6124701;23;20006;-83
2022/07/05 05:55:59;;;;;;;1.50;1.00;;;;;;;17.92;100.00;101476.34;6124903;23;20073;-83
2022/07/05 05:58:25;;;;;;;5.40;1.45;;;;;;;17.86;100.00;101471.56;6124830;23;19998;-83
2022/07/05 06:00:54;;;;;;;2.67;1.00;;;;;;;17.75;100.00;101467.94;6124353;23;20041;-83
2022/07/05 06:03:24;;;;;;;2.85;1.38;;;;;;;17.75;100.00;101473.25;6122738;23;20018;-83
2022/07/05 06:05:49;;;;;;;4.28;1.23;;;;;;;17.74;100.00;101473.38;6124813;23;20002;-83
2022/07/05 06:08:16;;;;;;;2.85;1.08;;;;;;;17.60;100.00;101477.13;6124689;23;20032;-83
2022/07/05 06:10:42;;;;;;;2.45;1.27;;;;;;;17.56;100.00;101476.53;6124141;23;20441;-83
2022/07/05 06:13:10;;;;;;;2.92;1.15;;;;;;;17.74;100.00;101479.50;6147288;23;20013;-83
2022/07/05 06:15:36;;;;;;;4.20;1.30;;;;;;;17.98;100.00;101476.69;6124247;23;20002;-83
2022/07/05 06:18:02;;;;;;;2.53;0.90;;;;;;;18.42;100.00;101480.13;6123195;23;20029;-83
2022/07/05 06:20:30;;;;;;;6.25;1.50;;;;;;;18.66;100.00;101484.34;6122045;23;20002;-83
2022/07/05 06:22:57;;;;;;;2.05;1.20;;;;;;;18.73;100.00;101487.31;6120054;23;20433;-83
2022/07/05 06:25:22;;;;;;;2.58;1.00;;;;;;;18.80;100.00;101489.34;6120168;23;20072;-83
2022/07/05 06:27:50;;;;;;;3.85;1.00;;;;;;;18.82;100.00;101476.75;6120387;23;20489;-83
2022/07/05 06:30:17;;;;;;;4.85;1.30;;;;;;;19.14;99.26;101482.94;6118835;23;20024;-83
2022/07/05 06:32:47;;;;;;;3.28;1.70;;;;;;;19.49;96.29;101485.16;6119327;23;20324;-83
2022/07/05 06:35:13;;;;;;;5.50;1.40;;;;;;;19.64;97.42;101482.09;6120101;23;20084;-83
2022/07/05 06:37:48;;;;;;;1.88;1.10;;;;;;;20.87;88.06;101477.03;6120112;23;20089;-84
2022/07/05 06:40:18;;;;;;;5.13;1.23;;;;;;;21.70;81.84;101477.09;6118408;23;20058;-84
2022/07/05 06:42:44;;;;;;;4.10;1.30;;;;;;;23.86;68.71;101479.16;6118140;23;20041;-83
2022/07/05 06:45:10;;;;;;;2.05;0.95;;;;;;;27.28;51.02;101479.34;6120216;23;20430;-84
2022/07/05 06:47:35;;;;;;;5.03;0.98;;;;;;;30.12;42.87;101464.63;6119453;23;20005;-84
2022/07/05 06:50:05;;;;;;;2.45;0.90;;;;;;;31.79;36.66;101465.81;6119824;23;20006;-83
2022/07/05 06:52:32;;;;;;;6.30;1.25;;;;;;;33.26;34.31;101463.56;6119854;23;20796;-84
2022/07/05 06:55:00;;;;;;;2.63;1.05;;;;;;;34.32;32.54;101464.69;6121722;23;20434;-84
2022/07/05 06:57:26;;;;;;;4.65;0.98;;;;;;;35.85;29.87;101468.06;6122172;23;20088;-82
2022/07/05 06:59:52;;;;;;;2.67;0.85;;;;;;;36.01;29.23;101474.63;6122069;23;20033;-84
2022/07/05 07:02:19;;;;;;;1.95;0.75;;;;;;;36.24;28.51;101471.75;6121139;23;20013;-84
2022/07/05 07:04:45;;;;;;;2.95;0.70;;;;;;;36.76;27.77;101464.28;6122536;23;20010;-84
2022/07/05 07:10:01;;;;;;;7.05;1.30;;;;;;;35.25;28.34;101485.78;6119086;23;20036;-84
2022/07/05 07:12:26;;;;;;;;;;;;;;;35.25;29.03;101488.53;6121901;23;20002;-83
2022/07/05 07:14:52;;;;;;;3.10;0.70;;;;;;;33.45;32.19;101480.69;6121995;23;19913;-83
2022/07/05 07:17:17;;;;;;;3.40;0.80;;;;;;;33.15;32.41;101482.31;6119319;23;20020;-83
2022/07/05 07:19:43;;;;;;;4.75;1.15;;;;;;;35.03;30.23;101483.69;6121747;23;20074;-83
2022/07/05 07:22:08;;;;;;;2.42;0.98;;;;;;;37.27;27.31;101481.34;6121714;23;20006;-84
2022/07/05 07:24:33;;;;;;;2.67;0.95;;;;;;;37.47;26.27;101475.25;6121535;23;20014;-84
2022/07/05 07:27:06;;;;;;;4.20;0.80;;;;;;;38.75;25.21;101476.25;6120797;23;20363;-83
2022/07/05 07:29:32;;;;;;;1.48;0.60;;;;;;;40.97;22.67;101480.69;6122690;23;20006;-83
2022/07/05 07:31:59;;;;;;;2.60;0.60;;;;;;;42.06;21.55;101484.38;6125489;23;20065;-84
2022/07/05 07:34:25;;;;;;;2.63;1.10;;;;;;;41.39;21.67;101493.16;6126318;23;19998;-83
2022/07/05 07:36:51;;;;;;;2.05;1.15;;;;;;;42.31;21.18;101492.41;6125870;23;20033;-84
2022/07/05 07:39:17;;;;;;;3.05;0.90;;;;;;;41.42;21.84;101498.09;6125185;23;20002;-84
2022/07/05 07:41:43;;;;;;;3.75;0.90;;;;;;;42.20;20.78;101502.75;6125129;23;20013;-84
2022/07/05 07:44:08;;;;;;;2.40;0.90;;;;;;;43.80;20.15;101498.72;6126284;23;20037;-84
2022/07/05 07:46:34;;;;;;;4.80;1.30;;;;;;;41.25;21.83;101505.91;6125945;23;20029;-83
2022/07/05 07:48:59;;;;;;;;;;;;;;;41.40;22.18;101512.16;6126331;23;20308;-84
2022/07/05 07:51:24;;;;;;;;;;;;;;;43.21;19.33;101501.00;6126250;23;19913;-83
2022/07/05 07:53:50;;;;;;;;;;;;;;;42.44;20.90;101506.63;6148831;23;19909;-84
2022/07/05 07:56:15;;;;;;;;;;;;;;;42.75;20.04;101502.41;6126354;23;20393;-82
2022/07/05 07:58:41;;;;;;;;;;;;;;;41.41;20.84;101483.50;6126402;23;19913;-84
2022/07/05 08:01:10;;;;;;;;;;;;;;;42.09;20.31;101495.66;6126008;23;19905;-84
2022/07/05 08:03:36;;;;;;;2.58;0.85;;;;;;;41.73;21.23;101506.16;6125594;23;19916;-84
2022/07/05 08:06:02;;;;;;;;;;;;;;;41.90;21.02;101506.56;6124173;23;20005;-83
2022/07/05 08:08:27;;;;;;;;;;;;;;;41.68;20.36;101518.06;6126021;23;19932;-83
2022/07/05 08:10:52;;;;;;;4.27;0.80;;;;;;;40.59;21.62;101514.13;6125999;23;20004;-84
2022/07/05 08:13:17;;;;;;;3.60;1.00;;;;;;;42.01;20.26;101513.63;6125617;23;20374;-83
2022/07/05 08:15:43;;;;;;;8.70;1.30;;;;;;;40.62;21.62;101504.47;6125455;23;20532;-85
2022/07/05 08:21:38;;;;;;;4.57;0.80;;;;;;;32.78;29.88;101522.25;6125418;23;20064;-85
2022/07/05 08:23:38;;;;;;;3.45;0.88;;;;;;;32.60;30.05;101517.63;6128676;23;20390;-84
2022/07/05 08:26:03;;;;;;;4.70;1.40;;;;;;;30.54;32.42;101517.53;6124895;23;20002;-84
2022/07/05 08:28:28;;;;;;;5.18;1.20;;;;;;;29.79;34.90;101524.97;6125279;23;20010;-84
2022/07/05 08:30:54;;;;;;;4.10;0.80;;;;;;;28.75;35.55;101534.78;6124912;23;20014;-85
2022/07/05 08:33:19;;;;;;;5.22;1.50;;;;;;;28.59;36.39;101532.41;6124767;23;20009;-84
2022/07/05 08:35:44;;;;;;;2.20;0.77;;;;;;;26.36;40.02;101538.03;6124691;23;20001;-84
2022/07/05 08:38:12;;;;;;;6.57;1.52;;;;;;;26.69;39.95;101525.13;6124608;23;20013;-84
2022/07/05 08:40:41;;;;;;;5.18;1.17;;;;;;;28.35;38.58;101533.63;6124888;23;20009;-84
2022/07/05 08:43:07;;;;;;;4.60;0.98;;;;;;;28.20;37.59;101531.84;6124901;23;20002;-84
2022/07/05 08:45:33;;;;;;;5.28;0.65;;;;;;;29.21;35.54;101531.59;6124242;23;20006;-84
2022/07/05 08:48:00;;;;;;;4.03;1.23;;;;;;;29.85;35.02;101524.13;6125540;23;20056;-84
2022/07/05 08:50:26;;;;;;;4.05;0.98;;;;;;;30.57;33.79;101532.53;6124690;23;20013;-84
2022/07/05 08:52:52;;;;;;;3.50;0.63;;;;;;;31.68;32.18;101533.53;6123216;23;20009;-84
2022/07/05 08:55:18;;;;;;;5.60;0.98;;;;;;;31.62;32.99;101527.09;6124128;23;20002;-84
2022/07/05 08:57:43;;;;;;;5.00;0.90;;;;;;;32.28;32.26;101533.97;6124485;23;20005;-84
2022/07/05 09:00:09;;;;;;;2.92;0.70;;;;;;;30.57;34.60;101532.53;6124852;23;20010;-83
2022/07/05 09:02:35;;;;;;;4.45;0.73;;;;;;;30.23;34.76;101531.69;6124816;23;20009;-83
2022/07/05 09:05:01;;;;;;;2.22;0.68;;;;;;;29.74;35.53;101527.44;6124132;23;20376;-84
2022/07/05 09:07:30;;;;;;;2.70;0.70;;;;;;;29.71;37.12;101527.81;6124502;23;20088;-83
2022/07/05 09:09:59;;;;;;;2.63;0.75;;;;;;;30.00;37.06;101529.38;6124344;23;20085;-84
2022/07/05 09:12:25;;;;;;;5.53;1.45;;;;;;;29.85;35.55;101521.44;6125454;23;20029;-84
2022/07/05 09:14:51;;;;;;;3.45;1.05;;;;;;;31.29;34.51;101516.34;6124253;23;20418;-84
2022/07/05 09:17:16;;;;;;;4.63;1.10;;;;;;;29.68;36.81;101523.66;6122701;23;20073;-84
2022/07/05 09:19:42;;;;;;;5.45;1.10;;;;;;;28.57;38.15;101538.00;6124276;23;20437;-84
2022/07/05 09:22:08;;;;;;;5.47;1.17;;;;;;;29.16;37.48;101535.91;6124553;23;20009;-84
2022/07/05 09:24:43;;;;;;;3.13;0.70;;;;;;;29.31;36.54;101535.81;6123766;23;20028;-83
2022/07/05 09:27:08;;;;;;;5.70;1.13;;;;;;;29.12;37.96;101538.19;6123861;23;20056;-84
2022/07/05 09:29:34;;;;;;;5.88;1.23;;;;;;;28.45;39.12;101539.53;6122429;23;20085;-85
2022/07/05 09:31:59;;;;;;;3.70;1.10;;;;;;;28.09;39.24;101543.97;6124231;23;20091;-84
2022/07/05 09:34:27;;;;;;;3.05;1.02;;;;;;;27.92;40.73;101545.25;6124685;23;20002;-83
2022/07/05 09:36:52;;;;;;;3.38;1.10;;;;;;;27.05;41.23;101540.59;6123909;23;20445;-83
2022/07/05 09:39:33;;;;;;;3.60;0.77;;;;;;;27.56;40.54;101545.25;6124230;23;20002;-83
2022/07/05 09:42:11;;;;;;;4.60;1.10;;;;;;;27.70;40.62;101545.19;6124166;23;20425;-83
2022/07/05 09:44:38;;;;;;;8.40;1.70;;;;;;;28.14;39.88;101550.66;6123981;23;20012;-83
2022/07/05 09:47:10;;;;;;;6.43;1.42;;;;;;;27.70;40.72;101544.34;6123813;23;20069;-83
2022/07/05 09:49:35;;;;;;;4.15;1.17;;;;;;;28.37;39.29;101556.72;6124557;23;20072;-83
2022/07/05 09:52:01;;;;;;;5.72;1.52;;;;;;;27.97;40.24;101558.19;6124294;23;20432;-84
2022/07/05 09:54:26;;;;;;;4.68;1.33;;;;;;;27.70;41.22;101561.38;6124477;23;20005;-83
2022/07/05 09:56:51;;;;;;;4.78;1.50;;;;;;;27.19;41.42;101555.09;6123180;23;20016;-84
2022/07/05 09:59:19;;;;;;;6.22;1.50;;;;;;;27.56;42.40;101556.84;6123886;23;20006;-83
2022/07/05 10:01:45;;;;;;;5.45;1.50;;;;;;;28.30;40.21;101555.84;6124548;23;20324;-83
2022/07/05 10:04:10;;;;;;;6.13;1.60;;;;;;;28.93;38.43;101565.91;6124099;23;20106;-83
2022/07/05 10:06:36;;;;;;;4.07;1.25;;;;;;;28.79;38.69;101567.69;6122049;23;20013;-83
2022/07/05 10:09:01;;;;;;;5.50;1.52;;;;;;;27.96;39.21;101560.03;6124273;23;20073;-83
2022/07/05 10:11:27;;;;;;;5.93;1.38;;;;;;;27.70;42.13;101558.69;6122424;23;20038;-83
2022/07/05 10:13:53;;;;;;;6.28;1.40;;;;;;;27.20;42.28;101568.38;6123269;23;20069;-83
2022/07/05 10:16:21;;;;;;;7.00;1.67;;;;;;;27.42;42.04;101573.91;6123469;23;20516;-83
2022/07/05 10:18:51;;;;;;;6.22;1.58;;;;;;;27.44;40.85;101571.84;6124043;23;20006;-83
2022/07/05 10:21:17;;;;;;;6.70;1.65;;;;;;;26.62;42.81;101570.84;6124107;23;19997;-84
2022/07/05 10:23:48;;;;;;;1.85;0.65;;;;;;;25.83;45.15;101572.81;6124398;23;20329;-84
2022/07/05 10:26:15;;;;;;;8.70;1.63;;;;;;;26.41;44.19;101566.09;6123700;23;19998;-83
2022/07/05 10:28:45;;;;;;;4.65;1.40;;;;;;;26.86;43.93;101560.84;6124329;23;20073;-83
2022/07/05 10:31:12;;;;;;;5.38;0.82;;;;;;;27.06;42.37;101561.16;6126098;23;20009;-84
2022/07/05 10:33:39;;;;;;;5.32;1.17;;;;;;;27.50;42.34;101563.84;6125804;23;20002;-83
2022/07/05 10:36:05;;;;;;;4.18;1.20;;;;;;;29.47;40.29;101559.81;6125235;23;20264;-83
2022/07/05 10:38:35;;;;;;;3.28;1.10;;;;;;;30.44;38.64;101555.06;6124299;23;20001;-83
2022/07/05 10:41:05;;;;;;;5.07;1.35;;;;;;;30.04;37.64;101539.59;6126149;23;19998;-83
2022/07/05 10:43:31;;;;;;;5.95;1.70;;;;;;;31.16;36.11;101542.50;6126188;23;20002;-84
2022/07/05 10:45:56;;;;;;;6.82;1.52;;;;;;;30.18;35.96;101553.16;6125769;23;20049;-83
2022/07/05 10:48:26;;;;;;;7.35;1.20;;;;;;;30.05;36.96;101553.97;6124813;23;20422;-83
2022/07/05 10:50:57;;;;;;;5.38;1.42;;;;;;;29.57;37.80;101564.84;6125253;23;20017;-83
2022/07/05 10:53:49;;;;;;;7.45;1.65;;;;;;;29.30;37.67;101563.88;6125644;23;20382;-83
2022/07/05 10:56:15;;;;;;;4.35;1.00;;;;;;;30.90;35.18;101558.81;6124909;23;20033;-84
2022/07/05 10:58:44;;;;;;;4.97;1.17;;;;;;;29.87;37.62;101565.38;6125295;23;20002;-83
2022/07/05 11:01:13;;;;;;;4.57;1.00;;;;;;;29.15;37.89;101562.13;6125484;23;20218;-83
2022/07/05 11:03:41;;;;;;;3.88;1.02;;;;;;;30.57;37.08;101555.09;6126033;23;20009;-83
2022/07/05 11:06:08;;;;;;;7.70;1.08;;;;;;;29.56;37.82;101568.56;6125695;23;20001;-83
2022/07/05 11:08:58;;;;;;;5.45;1.15;;;;;;;30.11;35.78;101565.84;6124422;23;20009;-83
2022/07/05 11:11:32;;;;;;;3.78;1.10;;;;;;;30.06;36.64;101566.47;6125083;23;20013;-83
2022/07/05 11:14:00;;;;;;;4.38;1.15;;;;;;;32.63;32.25;101560.69;6124211;23;20002;-83
2022/07/05 11:16:33;;;;;;;6.22;1.25;;;;;;;33.74;30.51;101564.28;6125527;23;20002;-84
2022/07/05 11:19:17;;;;;;;4.43;1.13;;;;;;;32.96;32.41;101568.53;6125996;23;20449;-83
2022/07/05 11:22:02;;;;;;;4.93;1.25;;;;;;;30.78;36.20;101575.69;6125183;23;20089;-84
2022/07/05 11:24:30;;;;;;;4.65;1.50;;;;;;;32.39;33.00;101574.03;6125625;23;20005;-84
2022/07/05 11:27:01;;;;;;;4.68;1.20;;;;;;;31.52;33.70;101578.31;6124639;23;20174;-84